Terminal Aerodrome Forecast
Issued by NWS Upton, NY

Home | Current Version | Previous Version | Text Only | Print | Product List | Glossary On
Versions: 1 2 3 4 5 6 7 8 9 10 11 12 13 14 15 16 17 18 19 20 21 22 23 24 25 26 27 28 29 30
000
FTUS41 KOKX 271100
TAFLGA
TAF
KLGA 271136Z 2712/2812 33010KT P6SM FEW020 OVC060
      TEMPO 2712/2714 5SM -SHSN BKN020
     FM271400 33011KT P6SM BKN050
     FM280500 32010KT P6SM BKN080=

USA.gov is the U.S. government's official web portal to all federal, state and local government web resources and services.